This is the latest recevied weather packets stored in our database for station/object SQ3VAS-10. If no packets are shown the sender has not sent any weather packets the latest 10 day(s).
| Time | Temp. | Humidity | Pressure | Rain* | Wind** | Luminosity | Snow |
|---|---|---|---|---|---|---|---|
| 1778097770 | 10° C | 84% | 1009.6 hPa | - | - | - | - |
| 1778097197 | 10.56° C | 84% | 1009.6 hPa | - | - | - | - |
| 1778096625 | 10° C | 85% | 1009.6 hPa | - | - | - | - |
| 1778096053 | 10.56° C | 83% | 1009.5 hPa | - | - | - | - |
| 1778095481 | 10.56° C | 84% | 1009.6 hPa | - | - | - | - |
| 1778094910 | 10.56° C | 86% | 1009.3 hPa | - | - | - | - |
| 1778094337 | 10.56° C | 86% | 1009.3 hPa | - | - | - | - |
| 1778093766 | 10.56° C | 87% | 1009.2 hPa | - | - | - | - |
| 1778093194 | 10.56° C | 87% | 1009 hPa | - | - | - | - |
| 1778092622 | 10.56° C | 87% | 1008.9 hPa | - | - | - | - |
| 1778092051 | 11.11° C | 86% | 1008.8 hPa | - | - | - | - |
| 1778091480 | 11.11° C | 87% | 1008.7 hPa | - | - | - | - |
| 1778090909 | 11.67° C | 86% | 1008.5 hPa | - | - | - | - |
| 1778090336 | 11.67° C | 84% | 1008.4 hPa | - | - | - | - |
| 1778089765 | 11.67° C | 85% | 1008.5 hPa | - | - | - | - |
| 1778089194 | 11.67° C | 84% | 1008.5 hPa | - | - | - | - |
| 1778088622 | 12.22° C | 84% | 1008.5 hPa | - | - | - | - |
| 1778088050 | 12.22° C | 83% | 1008.4 hPa | - | - | - | - |
| 1778087478 | 12.22° C | 82% | 1008.3 hPa | - | - | - | - |
| 1778086906 | 12.78° C | 81% | 1008.2 hPa | - | - | - | - |
| 1778086334 | 12.78° C | 81% | 1008.1 hPa | - | - | - | - |
| 1778085762 | 12.22° C | 82% | 1008.1 hPa | - | - | - | - |
| 1778085190 | 12.78° C | 79% | 1008.1 hPa | - | - | - | - |
| 1778084619 | 13.33° C | 77% | 1008 hPa | - | - | - | - |
| 1778084046 | 12.78° C | 81% | 1007.9 hPa | - | - | - | - |
* Rain since midnight (hover to see other rain measurements)
** Current wind speed in m/s (hover to see current wind gust speed)